Time;durP1;ratioP1;P1;durP2;ratioP2;P2;SDS_P1;SDS_P2;PMS_P1;PMS_P2;Temp;Humidity;BMP_temperature;BMP_pressure;BME280_temperature;BME280_humidity;BME280_pressure;Samples;Min_cycle;Max_cycle;Signal;HPM_P1;HPM_P2
2022/08/16 00:01:22;;;;;;;8.48;4.68;;;;;;;28.48;37.21;98652.19;4458731;32;33572;-62
2022/08/16 00:03:53;;;;;;;8.18;4.78;;;;;;;28.52;37.14;98647.81;4458557;32;33099;-62
2022/08/16 00:06:21;;;;;;;10.80;4.62;;;;;;;28.50;37.04;98658.25;4453427;32;34984;-62
2022/08/16 00:08:49;;;;;;;7.22;4.30;;;;;;;28.38;37.49;98654.81;4456209;32;34067;-62
2022/08/16 00:11:20;;;;;;;7.95;4.68;;;;;;;28.37;37.43;98655.88;4452460;32;34483;-62
2022/08/16 00:13:49;;;;;;;9.43;4.97;;;;;;;28.49;37.24;98664.84;4441818;32;33523;-62
2022/08/16 00:16:26;;;;;;;8.18;4.95;;;;;;;28.50;37.35;98663.75;4456394;32;33722;-62
2022/08/16 00:19:18;;;;;;;9.10;4.50;;;;;;;28.18;37.92;98665.53;4457697;32;34699;-62
2022/08/16 00:21:50;;;;;;;7.20;4.55;;;;;;;28.32;37.72;98658.56;4463906;32;33644;-62
2022/08/16 00:24:26;;;;;;;10.35;4.57;;;;;;;28.19;38.25;98670.78;4452535;32;36033;-62
2022/08/16 00:27:00;;;;;;;9.38;4.97;;;;;;;28.08;38.53;98669.81;4457033;32;34008;-62
2022/08/16 00:29:28;;;;;;;7.57;4.87;;;;;;;28.14;38.33;98672.66;4442527;32;33954;-62
2022/08/16 00:31:57;;;;;;;10.52;5.53;;;;;;;28.23;38.07;98663.69;4461891;32;33165;-62
2022/08/16 00:34:34;;;;;;;9.38;5.10;;;;;;;28.18;38.16;98657.28;4463084;32;32091;-62
2022/08/16 00:37:24;;;;;;;7.20;4.65;;;;;;;28.17;37.98;98666.63;4458772;32;35296;-62
2022/08/16 00:40:39;;;;;;;9.30;5.18;;;;;;;28.14;38.06;98665.22;4453574;32;33995;-62
2022/08/16 00:43:24;;;;;;;7.43;4.53;;;;;;;27.92;38.36;98658.87;4455857;32;34486;-62
2022/08/16 00:46:29;;;;;;;11.90;5.10;;;;;;;27.75;38.57;98667.13;4456441;32;33869;-61
2022/08/16 00:49:05;;;;;;;9.00;5.12;;;;;;;27.69;38.60;98668.13;4451971;32;35134;-61
2022/08/16 00:51:32;;;;;;;9.45;4.72;;;;;;;27.66;38.60;98671.38;4462581;32;34938;-61
2022/08/16 00:54:05;;;;;;;8.25;4.87;;;;;;;27.57;38.79;98665.47;4438004;32;32057;-61
2022/08/16 00:56:36;;;;;;;11.63;5.18;;;;;;;27.46;39.01;98669.16;4459679;32;34819;-61
2022/08/16 00:59:26;;;;;;;9.23;5.05;;;;;;;27.40;39.08;98673.72;4455768;32;33859;-62
2022/08/16 01:01:54;;;;;;;9.45;4.93;;;;;;;27.35;39.04;98673.63;4450088;32;33180;-62
2022/08/16 01:04:25;;;;;;;12.52;5.50;;;;;;;27.40;38.90;98676.47;4451677;32;34767;-61
2022/08/16 01:06:59;;;;;;;7.78;4.80;;;;;;;27.36;38.97;98680.81;4451467;32;34897;-61
2022/08/16 01:09:31;;;;;;;8.20;4.85;;;;;;;27.31;39.27;98687.03;4441565;32;35249;-61
2022/08/16 01:12:03;;;;;;;7.93;5.55;;;;;;;26.99;40.10;98677.66;4452482;32;34030;-61
2022/08/16 01:14:45;;;;;;;13.32;5.87;;;;;;;26.97;40.25;98688.03;4452425;32;34333;-62
2022/08/16 01:17:15;;;;;;;8.35;4.93;;;;;;;26.96;40.15;98681.72;4445891;32;33713;-62
2022/08/16 01:19:46;;;;;;;9.00;5.32;;;;;;;27.04;39.98;98678.59;4445569;32;34090;-62
2022/08/16 01:22:21;;;;;;;10.27;5.82;;;;;;;26.92;40.08;98678.66;4449050;32;34102;-60
2022/08/16 01:25:33;;;;;;;9.73;4.47;;;;;;;27.01;39.94;98673.59;4450828;32;33875;-60
2022/08/16 01:28:12;;;;;;;7.87;5.45;;;;;;;27.09;39.74;98681.41;4460847;32;34126;-61
2022/08/16 01:30:50;;;;;;;9.30;5.32;;;;;;;27.04;39.81;98683.25;4448384;32;33968;-61
2022/08/16 01:33:19;;;;;;;10.70;5.85;;;;;;;26.99;39.95;98683.16;4463949;32;32843;-61
2022/08/16 01:35:56;;;;;;;10.93;5.35;;;;;;;26.97;40.03;98680.66;4466955;32;33590;-60
2022/08/16 01:38:24;;;;;;;8.85;5.37;;;;;;;26.94;40.09;98675.66;4445819;32;34793;-60
2022/08/16 01:41:02;;;;;;;11.32;5.78;;;;;;;26.81;40.45;98675.97;4457624;32;33914;-60
2022/08/16 01:43:32;;;;;;;9.75;5.28;;;;;;;26.75;40.51;98677.78;4455593;32;33864;-61
2022/08/16 01:46:06;;;;;;;8.77;5.40;;;;;;;26.74;40.44;98678.84;4459012;32;34225;-60
2022/08/16 01:49:00;;;;;;;8.80;4.93;;;;;;;26.74;40.35;98687.06;4466513;32;33966;-61
2022/08/16 01:51:29;;;;;;;7.43;3.92;;;;;;;26.63;40.52;98677.81;4460727;32;35301;-60
2022/08/16 01:53:57;;;;;;;9.50;5.32;;;;;;;26.55;40.67;98677.38;4453889;32;34263;-60
2022/08/16 01:56:25;;;;;;;8.40;5.40;;;;;;;26.40;40.92;98672.41;4453693;32;33244;-60
2022/08/16 01:58:55;;;;;;;11.07;6.05;;;;;;;26.34;41.00;98670.62;4452079;32;34687;-60
2022/08/16 02:01:25;;;;;;;10.88;5.53;;;;;;;26.14;41.53;98671.88;4453053;32;34920;-60
2022/08/16 02:03:56;;;;;;;8.52;5.15;;;;;;;26.44;40.86;98679.06;4460210;32;33785;-60
2022/08/16 02:06:37;;;;;;;10.77;4.87;;;;;;;26.47;40.78;98678.56;4463286;32;33484;-60
2022/08/16 02:09:07;;;;;;;7.75;5.03;;;;;;;26.50;40.76;98686.34;4451914;32;34755;-60
2022/08/16 02:11:41;;;;;;;10.88;5.37;;;;;;;26.50;40.76;98680.88;4465085;32;32496;-60
2022/08/16 02:14:25;;;;;;;9.10;6.15;;;;;;;26.36;41.01;98683.03;4460213;32;35087;-60
2022/08/16 02:16:56;;;;;;;8.05;5.00;;;;;;;26.11;41.40;98671.53;4461924;32;34492;-60
2022/08/16 02:19:30;;;;;;;9.13;5.35;;;;;;;26.08;41.49;98672.00;4463975;32;34749;-60
2022/08/16 02:22:20;;;;;;;8.27;3.67;;;;;;;25.88;41.94;98670.50;4454037;32;34884;-60
2022/08/16 02:25:09;;;;;;;7.62;4.75;;;;;;;25.98;41.76;98673.44;4449888;32;34027;-60
2022/08/16 02:27:39;;;;;;;10.38;5.30;;;;;;;26.07;41.77;98673.91;4461024;32;33469;-60
2022/08/16 02:30:13;;;;;;;9.77;4.82;;;;;;;26.31;41.25;98671.94;4463157;32;35135;-62
2022/08/16 02:33:02;;;;;;;10.05;4.78;;;;;;;26.42;40.98;98675.72;4461624;32;34034;-60
2022/08/16 02:35:33;;;;;;;8.60;5.30;;;;;;;26.45;40.89;98667.84;4460109;32;34266;-60
2022/08/16 02:38:22;;;;;;;8.93;5.70;;;;;;;26.25;41.27;98672.91;4452333;32;33492;-60
2022/08/16 02:40:50;;;;;;;9.05;6.03;;;;;;;26.25;41.11;98672.91;4449782;32;33319;-61
2022/08/16 02:43:26;;;;;;;10.98;5.80;;;;;;;26.11;41.42;98666.87;4456318;32;34660;-61
2022/08/16 02:45:55;;;;;;;9.50;6.15;;;;;;;26.08;41.49;98667.34;4453982;32;33894;-62
2022/08/16 02:48:24;;;;;;;9.13;5.85;;;;;;;25.81;42.17;98669.78;4460805;32;34602;-61
2022/08/16 02:50:58;;;;;;;8.52;5.30;;;;;;;25.93;42.00;98669.75;4463379;32;33831;-61
2022/08/16 02:53:43;;;;;;;8.90;6.18;;;;;;;26.00;41.80;98670.44;4463258;32;35029;-61
2022/08/16 02:56:13;;;;;;;8.88;5.70;;;;;;;25.88;42.13;98665.00;4453169;32;32815;-61
2022/08/16 02:58:44;;;;;;;8.95;5.82;;;;;;;25.91;41.93;98667.25;4456230;32;34735;-61
2022/08/16 03:01:13;;;;;;;9.90;5.80;;;;;;;25.84;42.28;98669.28;4462716;32;35136;-61
2022/08/16 03:04:03;;;;;;;7.37;5.10;;;;;;;25.95;42.04;98662.13;4463959;32;35168;-61
2022/08/16 03:06:51;;;;;;;8.82;5.00;;;;;;;26.00;41.86;98664.97;4464831;32;34463;-60
2022/08/16 03:09:25;;;;;;;6.45;3.92;;;;;;;26.04;41.64;98670.81;4457097;32;33363;-60
2022/08/16 03:11:59;;;;;;;8.30;5.97;;;;;;;26.03;41.65;98656.25;4450291;32;33174;-60
2022/08/16 03:14:30;;;;;;;9.23;5.37;;;;;;;25.92;41.81;98668.91;4451287;32;34104;-61
2022/08/16 03:16:58;;;;;;;10.93;5.60;;;;;;;26.00;41.66;98673.19;4452070;32;34940;-61
2022/08/16 03:19:30;;;;;;;10.77;5.10;;;;;;;25.94;41.77;98676.91;4460027;32;32756;-60
2022/08/16 03:22:20;;;;;;;10.77;5.60;;;;;;;25.95;41.66;98673.09;4463747;32;33900;-60
2022/08/16 03:25:00;;;;;;;11.12;6.12;;;;;;;25.94;41.69;98675.00;4454272;32;33954;-60
2022/08/16 03:27:30;;;;;;;14.35;5.80;;;;;;;25.90;41.89;98682.03;4457228;32;33993;-61
2022/08/16 03:30:03;;;;;;;11.38;6.90;;;;;;;25.84;41.98;98680.25;4460088;32;33764;-61
2022/08/16 03:32:46;;;;;;;11.57;6.15;;;;;;;25.69;42.39;98688.09;4459685;32;33589;-63
2022/08/16 03:35:20;;;;;;;9.70;5.95;;;;;;;25.31;43.46;98700.31;4456558;32;32842;-63
2022/08/16 03:37:48;;;;;;;10.48;5.93;;;;;;;25.56;42.86;98706.44;4452066;32;34088;-63
2022/08/16 03:40:32;;;;;;;10.25;5.72;;;;;;;25.59;42.72;98698.81;4455921;32;33780;-62
2022/08/16 03:43:04;;;;;;;13.43;5.97;;;;;;;25.55;42.80;98707.50;4455840;32;33577;-62
2022/08/16 03:45:54;;;;;;;14.05;5.55;;;;;;;25.62;42.80;98712.87;4453079;32;33730;-63
2022/08/16 03:48:26;;;;;;;11.15;4.30;;;;;;;25.63;42.92;98713.72;4454618;32;34094;-63
2022/08/16 03:51:08;;;;;;;8.88;5.93;;;;;;;25.65;42.89;98701.44;4456595;32;32589;-62
2022/08/16 03:53:37;;;;;;;13.62;6.15;;;;;;;25.78;42.78;98711.34;4456455;32;35046;-62
2022/08/16 03:56:06;;;;;;;9.30;6.07;;;;;;;25.77;42.73;98718.69;4459177;32;35640;-62
2022/08/16 03:58:45;;;;;;;10.35;5.65;;;;;;;25.87;42.31;98711.81;4456025;32;35008;-64
2022/08/16 04:01:15;;;;;;;12.25;6.55;;;;;;;25.82;42.41;98714.47;4456768;32;34362;-63
2022/08/16 04:03:43;;;;;;;8.80;5.87;;;;;;;25.73;42.66;98719.44;4452091;32;34969;-62
2022/08/16 04:06:10;;;;;;;10.35;6.28;;;;;;;25.79;42.53;98711.09;4454973;32;34011;-63
2022/08/16 04:08:38;;;;;;;9.75;6.00;;;;;;;25.58;43.22;98713.56;4460305;32;33861;-63
2022/08/16 04:11:06;;;;;;;9.52;6.18;;;;;;;25.67;43.04;98709.41;4454371;32;32554;-62
2022/08/16 04:13:36;;;;;;;10.98;5.87;;;;;;;25.91;42.59;98722.09;4451472;32;35007;-64
2022/08/16 04:16:24;;;;;;;10.15;5.75;;;;;;;25.97;42.74;98728.50;4452127;32;35090;-63
2022/08/16 04:18:55;;;;;;;7.85;5.28;;;;;;;26.09;42.17;98720.28;4464840;32;34245;-63
2022/08/16 04:21:33;;;;;;;10.98;6.45;;;;;;;26.09;42.44;98726.59;4464484;32;34461;-63
2022/08/16 04:24:02;;;;;;;8.57;6.55;;;;;;;26.13;42.42;98716.84;4450569;32;33805;-64
2022/08/16 04:26:30;;;;;;;8.90;4.87;;;;;;;26.20;42.34;98724.94;4454928;32;33653;-63
2022/08/16 04:29:00;;;;;;;7.95;5.47;;;;;;;26.27;42.00;98733.84;4460400;32;33421;-64
2022/08/16 04:31:49;;;;;;;11.48;6.32;;;;;;;26.16;41.77;98726.47;4462202;32;33291;-64
2022/08/16 04:34:28;;;;;;;12.50;6.12;;;;;;;26.05;42.03;98728.16;4451474;32;33559;-63
2022/08/16 04:36:59;;;;;;;12.13;5.82;;;;;;;26.01;42.32;98724.22;4457190;32;33404;-62
2022/08/16 04:39:30;;;;;;;10.15;6.35;;;;;;;26.14;42.08;98728.63;4455421;32;35158;-62
2022/08/16 04:42:17;;;;;;;9.50;5.68;;;;;;;26.17;42.17;98723.50;4450559;32;33511;-62
2022/08/16 04:44:54;;;;;;;8.75;5.72;;;;;;;26.06;42.57;98728.97;4463402;32;33825;-62
2022/08/16 04:47:25;;;;;;;8.23;5.80;;;;;;;25.97;43.11;98732.09;4453548;32;33847;-62
2022/08/16 04:50:26;;;;;;;10.43;6.80;;;;;;;26.00;43.08;98741.72;4458452;32;32685;-60
2022/08/16 04:52:57;;;;;;;9.88;5.53;;;;;;;26.02;43.20;98737.69;4455672;32;32503;-60
2022/08/16 04:55:27;;;;;;;8.25;5.53;;;;;;;26.21;43.04;98735.63;4453636;32;32413;-60
2022/08/16 04:58:05;;;;;;;10.75;6.40;;;;;;;26.40;42.88;98735.50;4459115;32;35527;-60
2022/08/16 05:00:53;;;;;;;10.82;5.62;;;;;;;26.43;42.82;98724.03;4462970;32;34214;-60
2022/08/16 05:03:21;;;;;;;10.10;6.07;;;;;;;26.54;42.15;98727.84;4467353;32;34426;-60
2022/08/16 05:05:52;;;;;;;8.20;5.62;;;;;;;26.56;42.15;98732.03;4461834;32;34382;-60
2022/08/16 05:08:27;;;;;;;10.35;5.80;;;;;;;26.63;42.03;98740.94;4451757;32;33638;-62
2022/08/16 05:11:01;;;;;;;10.10;5.90;;;;;;;26.66;41.77;98732.22;4462913;32;33861;-60
2022/08/16 05:13:35;;;;;;;12.23;6.60;;;;;;;26.47;42.81;98744.41;4450113;32;34159;-60
2022/08/16 05:16:12;;;;;;;8.60;5.65;;;;;;;26.33;43.52;98754.00;4452088;32;33811;-60
2022/08/16 05:18:52;;;;;;;10.63;5.97;;;;;;;26.45;42.81;98754.78;4451814;32;33911;-60
2022/08/16 05:21:20;;;;;;;8.98;6.03;;;;;;;26.58;42.17;98761.94;4455484;32;34091;-60
2022/08/16 05:23:51;;;;;;;13.68;6.28;;;;;;;26.87;41.58;98765.56;4451176;32;32712;-60
2022/08/16 05:26:30;;;;;;;8.82;5.87;;;;;;;26.73;41.98;98767.75;4463225;32;33752;-60
2022/08/16 05:28:59;;;;;;;9.23;6.40;;;;;;;26.97;41.61;98774.03;4456602;32;34285;-60
2022/08/16 05:31:31;;;;;;;8.57;5.87;;;;;;;26.78;41.94;98769.78;4457104;32;32793;-60
2022/08/16 05:34:02;;;;;;;9.25;6.12;;;;;;;26.90;41.97;98773.31;4450020;32;33104;-61
2022/08/16 05:36:31;;;;;;;9.23;6.18;;;;;;;26.87;41.97;98773.78;4460590;32;33965;-62
2022/08/16 05:39:02;;;;;;;10.68;6.03;;;;;;;27.04;41.71;98771.12;4451686;32;33856;-62
2022/08/16 05:41:29;;;;;;;14.57;6.50;;;;;;;27.06;41.95;98780.78;4456065;32;35070;-62
2022/08/16 05:43:59;;;;;;;8.90;5.87;;;;;;;27.08;42.03;98770.38;4458112;32;33693;-62
2022/08/16 05:46:32;;;;;;;10.85;5.90;;;;;;;27.12;41.72;98777.03;4456624;32;36429;-62
2022/08/16 05:49:01;;;;;;;10.68;7.55;;;;;;;27.09;41.85;98777.53;4454306;32;34990;-60
2022/08/16 05:51:36;;;;;;;8.65;6.32;;;;;;;27.05;42.06;98770.03;4456056;32;34077;-63
2022/08/16 05:54:07;;;;;;;12.30;6.07;;;;;;;27.13;41.96;98770.53;4451456;32;33534;-60
2022/08/16 05:56:38;;;;;;;10.38;5.70;;;;;;;27.14;41.85;98774.09;4453401;32;34884;-60
2022/08/16 05:59:07;;;;;;;11.48;6.72;;;;;;;27.12;42.16;98771.53;4452648;32;33658;-63
2022/08/16 06:01:34;;;;;;;11.82;6.37;;;;;;;26.94;42.54;98772.59;4462480;32;33936;-60
2022/08/16 06:04:07;;;;;;;10.40;6.43;;;;;;;26.64;43.45;98769.22;4456481;32;33837;-61
2022/08/16 06:06:55;;;;;;;10.32;6.05;;;;;;;26.61;43.52;98784.28;4451697;32;34935;-61
2022/08/16 06:09:25;;;;;;;12.40;6.57;;;;;;;26.73;44.10;98784.22;4460414;32;32235;-61
2022/08/16 06:12:14;;;;;;;11.80;6.97;;;;;;;26.91;44.02;98775.00;4457676;32;34023;-61
2022/08/16 06:15:00;;;;;;;19.67;8.18;;;;;;;26.93;44.60;98775.56;4456872;32;33705;-60
2022/08/16 06:17:31;;;;;;;11.48;6.85;;;;;;;27.10;44.79;98768.22;4464470;32;34755;-60
2022/08/16 06:20:19;;;;;;;12.02;7.03;;;;;;;27.14;45.35;98763.09;4456378;32;35165;-61
2022/08/16 06:22:55;;;;;;;12.35;6.85;;;;;;;26.64;46.58;98771.97;4456577;32;32943;-60
2022/08/16 06:25:32;;;;;;;11.48;7.32;;;;;;;26.35;46.79;98771.03;4461684;32;33779;-61
2022/08/16 06:28:07;;;;;;;13.13;6.82;;;;;;;26.46;47.02;98764.72;4454609;32;33585;-61
2022/08/16 06:30:38;;;;;;;11.60;7.60;;;;;;;26.79;46.37;98763.22;4465994;32;32797;-61
2022/08/16 06:33:16;;;;;;;9.02;6.47;;;;;;;26.48;47.18;98757.94;4462359;32;34159;-60
2022/08/16 06:35:50;;;;;;;11.55;5.65;;;;;;;26.18;49.15;98762.72;4461106;32;33351;-60
2022/08/16 06:38:27;;;;;;;7.12;4.32;;;;;;;26.08;49.03;98751.53;4453614;32;35328;-61
2022/08/16 06:41:05;;;;;;;8.02;3.85;;;;;;;25.82;47.99;98739.12;4450746;32;34016;-61
2022/08/16 06:43:40;;;;;;;7.18;3.10;;;;;;;25.08;46.15;98744.88;4463233;32;32810;-60
2022/08/16 06:46:36;;;;;;;10.02;3.17;;;;;;;25.31;41.60;98727.72;4454029;32;34630;-60
2022/08/16 06:49:09;;;;;;;5.62;3.12;;;;;;;25.03;42.33;98737.34;4460811;32;34916;-60
2022/08/16 06:51:39;;;;;;;7.50;3.20;;;;;;;25.10;42.57;98737.25;4463634;32;33028;-61
2022/08/16 06:54:15;;;;;;;6.37;3.08;;;;;;;25.29;42.83;98738.06;4456483;32;33557;-61
2022/08/16 06:56:43;;;;;;;5.12;2.70;;;;;;;25.75;41.35;98734.56;4456169;32;33357;-61
2022/08/16 06:59:12;;;;;;;4.78;2.78;;;;;;;26.14;40.17;98734.94;4453373;32;33815;-60
2022/08/16 07:01:41;;;;;;;5.78;2.95;;;;;;;26.44;39.16;98728.44;4457723;32;35180;-61
2022/08/16 07:04:21;;;;;;;8.77;3.12;;;;;;;27.05;39.02;98735.16;4452178;32;35102;-60
2022/08/16 07:07:00;;;;;;;7.43;3.28;;;;;;;27.46;39.97;98735.94;4459883;32;33414;-60
2022/08/16 07:09:30;;;;;;;6.30;3.33;;;;;;;27.28;43.33;98747.16;4456730;32;33918;-60
2022/08/16 07:11:59;;;;;;;6.25;2.95;;;;;;;27.47;43.16;98754.06;4454519;32;34816;-60
2022/08/16 07:14:32;;;;;;;8.45;4.32;;;;;;;27.52;44.86;98753.34;4458316;32;33856;-61
2022/08/16 07:17:02;;;;;;;9.18;4.55;;;;;;;27.45;45.48;98759.00;4439865;32;32169;-61
2022/08/16 07:19:39;;;;;;;7.22;4.55;;;;;;;27.37;47.03;98784.13;4455064;32;34206;-61
2022/08/16 07:22:27;;;;;;;10.30;6.82;;;;;;;27.57;47.74;98787.22;4453562;32;34107;-60
2022/08/16 07:25:10;;;;;;;12.93;8.73;;;;;;;27.04;49.40;98788.44;4462019;32;33986;-61
2022/08/16 07:27:39;;;;;;;11.85;8.15;;;;;;;26.86;50.55;98802.34;4459454;32;34523;-60
2022/08/16 07:30:12;;;;;;;11.05;8.05;;;;;;;26.43;52.33;98795.38;4454537;32;32905;-60
2022/08/16 07:33:01;;;;;;;11.82;8.40;;;;;;;26.21;52.73;98797.88;4461112;32;34025;-61
2022/08/16 07:35:29;;;;;;;12.95;8.82;;;;;;;26.59;52.14;98802.06;4460998;32;33219;-60
2022/08/16 07:37:57;;;;;;;15.15;8.63;;;;;;;26.58;50.87;98806.72;4453201;32;34834;-61
2022/08/16 07:40:25;;;;;;;11.93;9.35;;;;;;;26.47;50.74;98799.28;4452919;32;34825;-60
2022/08/16 07:43:14;;;;;;;12.52;7.70;;;;;;;26.72;50.14;98807.28;4452745;32;33747;-61
2022/08/16 07:45:41;;;;;;;16.30;8.38;;;;;;;26.80;49.89;98814.28;4457307;32;34310;-60
2022/08/16 07:48:12;;;;;;;12.65;7.30;;;;;;;26.87;49.32;98807.59;4463371;32;32509;-60
2022/08/16 07:50:42;;;;;;;11.20;6.95;;;;;;;27.00;49.25;98806.47;4457711;32;34861;-61
2022/08/16 07:53:30;;;;;;;13.13;7.37;;;;;;;27.12;49.39;98801.75;4453610;32;32775;-61
2022/08/16 07:56:01;;;;;;;11.60;7.15;;;;;;;27.17;48.76;98810.13;4455041;32;35056;-61
2022/08/16 07:58:32;;;;;;;9.30;6.67;;;;;;;27.25;48.36;98803.41;4461832;32;34721;-61
2022/08/16 08:01:05;;;;;;;10.05;6.55;;;;;;;27.15;47.63;98801.31;4462194;32;32645;-60
2022/08/16 08:03:42;;;;;;;11.35;7.22;;;;;;;27.33;47.51;98800.28;4465405;32;33948;-61
2022/08/16 08:06:19;;;;;;;16.48;7.43;;;;;;;27.39;47.49;98801.22;4452432;32;33718;-61
2022/08/16 08:08:48;;;;;;;10.98;7.18;;;;;;;27.45;47.23;98813.97;4452359;32;33580;-61
2022/08/16 08:11:23;;;;;;;13.32;7.68;;;;;;;27.47;47.28;98808.22;4461803;32;32860;-61
2022/08/16 08:13:59;;;;;;;12.23;6.70;;;;;;;27.55;46.23;98818.81;4457575;32;33468;-61
2022/08/16 08:16:33;;;;;;;11.68;6.68;;;;;;;27.57;46.25;98805.63;4449846;32;32942;-61
2022/08/16 08:19:03;;;;;;;12.60;7.15;;;;;;;27.72;46.59;98808.66;4452664;32;33661;-61
2022/08/16 08:21:32;;;;;;;10.68;7.35;;;;;;;27.78;46.48;98815.12;4451729;32;33548;-61
2022/08/16 08:24:21;;;;;;;9.98;7.75;;;;;;;27.76;45.88;98814.47;4457567;32;33897;-61
2022/08/16 08:27:00;;;;;;;14.27;7.57;;;;;;;27.83;45.29;98823.44;4459047;32;33854;-61
2022/08/16 08:29:31;;;;;;;10.20;6.70;;;;;;;27.87;44.86;98819.13;4458636;32;33632;-61
2022/08/16 08:32:08;;;;;;;10.35;6.35;;;;;;;28.01;44.50;98825.94;4462516;32;35048;-61
2022/08/16 08:34:58;;;;;;;9.70;5.40;;;;;;;28.14;44.13;98833.00;4451839;32;33859;-61
2022/08/16 08:37:33;;;;;;;8.02;4.85;;;;;;;28.26;41.55;98825.50;4467355;32;34004;-61
2022/08/16 08:40:22;;;;;;;9.02;5.78;;;;;;;28.19;41.25;98830.34;4460833;32;34554;-61
2022/08/16 08:42:57;;;;;;;10.43;5.00;;;;;;;28.22;41.53;98818.84;4463002;32;34729;-61
2022/08/16 08:45:28;;;;;;;9.27;4.95;;;;;;;28.45;41.57;98822.50;4459233;32;34053;-61
2022/08/16 08:48:16;;;;;;;10.52;5.68;;;;;;;28.64;40.17;98820.31;4455600;32;35077;-61
2022/08/16 08:51:04;;;;;;;6.65;5.00;;;;;;;28.18;41.14;98816.84;4453588;32;32559;-61
2022/08/16 08:53:37;;;;;;;11.32;5.12;;;;;;;28.55;41.12;98815.22;4470323;32;33720;-61
2022/08/16 08:56:06;;;;;;;9.20;5.00;;;;;;;28.53;41.57;98811.87;4461559;32;33827;-60
2022/08/16 08:58:52;;;;;;;8.90;4.80;;;;;;;28.87;40.72;98805.44;4458681;32;34154;-61
2022/08/16 09:01:31;;;;;;;;;;;;;;;29.33;39.61;98803.22;4465124;32;34545;-61
2022/08/16 09:04:10;;;;;;;7.35;4.62;;;;;;;29.55;39.52;98811.44;4455482;32;35232;-61
2022/08/16 09:06:45;;;;;;;7.12;4.22;;;;;;;29.57;39.43;98809.28;4458721;32;34401;-61
2022/08/16 09:09:14;;;;;;;10.73;5.75;;;;;;;29.39;38.46;98804.94;4458932;32;33993;-61
2022/08/16 09:11:45;;;;;;;8.45;4.75;;;;;;;29.53;39.72;98810.88;4444976;32;32152;-61
2022/08/16 09:14:20;;;;;;;7.22;4.72;;;;;;;29.54;40.02;98810.63;4461268;32;32772;-61
2022/08/16 09:16:52;;;;;;;5.62;3.50;;;;;;;29.83;38.13;98808.44;4455957;32;34133;-61
2022/08/16 09:19:33;;;;;;;6.05;3.72;;;;;;;30.16;35.24;98793.50;4460092;32;34830;-61
2022/08/16 09:22:02;;;;;;;5.57;3.45;;;;;;;30.32;33.26;98791.69;4457135;32;33135;-61
2022/08/16 09:24:31;;;;;;;5.00;3.17;;;;;;;30.37;33.02;98786.22;4458139;32;34046;-62
2022/08/16 09:27:24;;;;;;;6.20;3.62;;;;;;;30.97;32.93;98788.72;4458843;32;33645;-61
2022/08/16 09:29:53;;;;;;;5.37;3.42;;;;;;;31.32;31.66;98787.97;4456471;32;33980;-61
2022/08/16 09:32:29;;;;;;;7.50;3.70;;;;;;;31.09;31.82;98778.25;4454140;32;32347;-62
2022/08/16 09:35:00;;;;;;;7.40;3.58;;;;;;;31.35;32.01;98779.16;4454759;32;32906;-61
2022/08/16 09:37:29;;;;;;;5.68;3.58;;;;;;;31.85;30.30;98779.50;4456216;32;34030;-61
2022/08/16 09:40:06;;;;;;;6.57;3.22;;;;;;;31.92;29.12;98780.87;4454214;32;34923;-61
2022/08/16 09:42:57;;;;;;;5.68;3.10;;;;;;;31.97;29.69;98782.81;4446795;32;33527;-62
2022/08/16 09:45:27;;;;;;;6.18;3.75;;;;;;;32.09;29.38;98777.81;4456499;32;34191;-62
2022/08/16 09:47:55;;;;;;;8.35;4.35;;;;;;;32.48;28.79;98779.97;4461175;32;35052;-61
2022/08/16 09:50:28;;;;;;;7.18;3.95;;;;;;;32.57;28.37;98781.06;4458446;32;34977;-62
2022/08/16 09:53:25;;;;;;;5.43;3.50;;;;;;;32.86;28.51;98780.41;4454245;32;33403;-61
2022/08/16 09:55:55;;;;;;;7.37;4.00;;;;;;;33.21;28.49;98779.41;4452893;32;32549;-62
2022/08/16 09:58:26;;;;;;;6.95;3.70;;;;;;;33.12;28.86;98770.84;4453579;32;33976;-61
2022/08/16 10:01:13;;;;;;;7.20;3.90;;;;;;;33.23;28.34;98771.66;4455116;32;34297;-61
2022/08/16 10:03:41;;;;;;;6.07;4.18;;;;;;;33.68;28.18;98766.91;4458810;32;32499;-62
2022/08/16 10:06:29;;;;;;;4.90;3.50;;;;;;;33.66;27.20;98769.13;4453628;32;34781;-62
2022/08/16 10:09:06;;;;;;;5.30;3.15;;;;;;;34.10;26.67;98757.13;4452046;32;34166;-61
2022/08/16 10:14:44;;;;;;;5.37;3.37;;;;;;;34.18;26.38;98759.25;4458022;32;34668;-62
2022/08/16 10:17:12;;;;;;;5.10;3.40;;;;;;;34.41;26.06;98760.38;4449254;32;33477;-62
2022/08/16 10:19:41;;;;;;;8.23;3.90;;;;;;;34.23;25.85;98759.19;4462450;32;32305;-62
2022/08/16 10:22:09;;;;;;;5.95;3.47;;;;;;;34.72;25.61;98754.50;4460762;32;34078;-62
2022/08/16 10:24:39;;;;;;;6.70;3.80;;;;;;;35.05;24.11;98754.66;4461380;32;34768;-62
2022/08/16 10:27:27;;;;;;;5.53;3.40;;;;;;;35.21;23.25;98748.56;4450162;32;32289;-62
2022/08/16 10:30:19;;;;;;;6.18;3.60;;;;;;;35.08;23.21;98751.25;4466709;32;33902;-62
2022/08/16 10:32:55;;;;;;;7.37;3.60;;;;;;;35.08;23.30;98756.81;4456806;32;34108;-62
2022/08/16 10:35:23;;;;;;;8.52;3.83;;;;;;;35.52;23.23;98761.19;4463238;32;33507;-62
2022/08/16 10:38:00;;;;;;;6.95;3.85;;;;;;;35.60;22.67;98755.78;4459957;32;31204;-62
2022/08/16 10:40:33;;;;;;;7.18;3.80;;;;;;;35.76;22.90;98753.56;4454027;32;33728;-62
2022/08/16 10:43:01;;;;;;;5.70;3.40;;;;;;;35.98;22.54;98752.91;4457218;32;33872;-62
2022/08/16 10:45:31;;;;;;;6.07;3.90;;;;;;;36.05;22.48;98758.94;4460095;32;33355;-62
2022/08/16 10:48:09;;;;;;;5.32;3.28;;;;;;;36.07;22.76;98755.84;4456999;32;37280;-62
2022/08/16 10:50:57;;;;;;;6.12;3.70;;;;;;;36.22;22.45;98744.41;4457358;32;35194;-62
2022/08/16 10:53:26;;;;;;;5.53;3.20;;;;;;;36.42;22.36;98748.75;4455122;32;33872;-62
2022/08/16 10:56:02;;;;;;;7.82;3.22;;;;;;;36.47;21.66;98748.66;4464427;32;33633;-62
2022/08/16 10:58:33;;;;;;;6.90;3.85;;;;;;;36.32;21.83;98749.78;4457346;32;33779;-62
2022/08/16 11:01:04;;;;;;;6.43;3.83;;;;;;;36.24;22.07;98744.91;4462765;32;33862;-62
2022/08/16 11:03:52;;;;;;;6.43;3.50;;;;;;;36.36;22.00;98745.25;4452462;32;34084;-62
2022/08/16 11:06:24;;;;;;;7.18;4.00;;;;;;;36.27;21.83;98741.50;4457116;32;33973;-62
2022/08/16 11:08:57;;;;;;;5.28;3.35;;;;;;;36.24;21.50;98741.31;4456803;32;33943;-62
2022/08/16 11:11:45;;;;;;;6.43;3.67;;;;;;;36.32;21.44;98740.59;4465785;32;32839;-62
2022/08/16 11:14:33;;;;;;;7.05;3.65;;;;;;;36.43;21.84;98733.69;4459145;32;32501;-62
2022/08/16 11:17:04;;;;;;;6.35;3.65;;;;;;;36.67;21.71;98741.06;4450692;32;33553;-62
2022/08/16 11:19:40;;;;;;;4.65;3.20;;;;;;;36.32;21.73;98738.66;4432824;32;33354;-62
2022/08/16 11:22:28;;;;;;;5.62;3.28;;;;;;;36.77;21.27;98736.06;4454039;32;32769;-62
2022/08/16 11:25:20;;;;;;;5.32;3.60;;;;;;;36.47;21.72;98733.88;4457151;32;34768;-62
2022/08/16 11:28:08;;;;;;;4.93;3.22;;;;;;;36.77;20.65;98733.28;4451239;32;33616;-62
2022/08/16 11:30:37;;;;;;;6.15;3.85;;;;;;;37.12;20.03;98742.03;4464074;32;32582;-62
2022/08/16 11:33:07;;;;;;;5.85;3.35;;;;;;;37.03;20.24;98732.75;4429554;32;33952;-62
2022/08/16 11:35:38;;;;;;;4.80;3.37;;;;;;;37.08;20.35;98743.81;4432598;32;32474;-62
2022/08/16 11:38:26;;;;;;;7.32;3.47;;;;;;;36.20;21.55;98740.28;4426458;32;32320;-62
2022/08/16 11:41:14;;;;;;;7.32;3.50;;;;;;;35.67;23.31;98761.78;4425312;32;33915;-62
2022/08/16 11:43:42;;;;;;;6.12;3.55;;;;;;;35.11;24.58;98757.06;4425658;32;34065;-62
2022/08/16 11:46:12;;;;;;;6.55;3.67;;;;;;;35.62;24.96;98755.47;4430715;32;33334;-62
2022/08/16 11:49:02;;;;;;;5.32;2.83;;;;;;;34.87;24.84;98750.69;4430287;32;34730;-62
2022/08/16 11:51:30;;;;;;;6.93;2.92;;;;;;;34.08;25.08;98745.47;4426236;32;33607;-62
2022/08/16 11:53:57;;;;;;;5.87;3.53;;;;;;;34.41;25.11;98752.03;4430543;32;34353;-62
2022/08/16 11:56:25;;;;;;;5.80;2.97;;;;;;;34.38;24.88;98752.63;4425010;32;34023;-62
2022/08/16 11:59:13;;;;;;;6.53;3.92;;;;;;;34.24;24.30;98751.69;4422930;32;32342;-62
2022/08/16 12:01:42;;;;;;;4.87;3.15;;;;;;;34.19;24.95;98754.50;4425641;32;33862;-62
2022/08/16 12:04:25;;;;;;;5.62;3.22;;;;;;;34.43;25.03;98757.31;4431612;32;32792;-61
2022/08/16 12:06:53;;;;;;;6.37;3.10;;;;;;;33.60;26.20;98762.78;4433055;32;34010;-62
2022/08/16 12:09:22;;;;;;;5.32;3.28;;;;;;;33.72;26.61;98751.34;4432057;32;33493;-62
2022/08/16 12:11:52;;;;;;;7.15;3.37;;;;;;;34.09;26.33;98749.91;4431666;32;34726;-62
2022/08/16 12:14:20;;;;;;;6.53;3.65;;;;;;;34.41;25.53;98754.81;4423598;32;33783;-62